This is the latest recevied weather packets stored in our database for station/object DM1RG-6. If no packets are shown the sender has not sent any weather packets the latest 1 day(s).
| Time | Temp. | Humidity | Pressure | Rain* | Wind** | Luminosity | Snow |
|---|---|---|---|---|---|---|---|
| 1836274497 | 16.67° C | 81% | 1017.6 hPa | 0 mm | 1.79 m/s, 234° | - | - |
| 1836274468 | 16.67° C | 80% | 1017.6 hPa | 0 mm | 2.24 m/s, 242° | - | - |
| 1836274137 | 16.67° C | 83% | 1017.7 hPa | 0 mm | 1.79 m/s, 233° | - | - |
| 1836274108 | 16.67° C | 80% | 1017.6 hPa | 0 mm | 2.24 m/s, 237° | - | - |
| 1778031364 | 11.67° C | 100% | 1004.8 hPa | 2.03 mm | 2.24 m/s, 32° | - | - |
| 1778031004 | 11.67° C | 100% | 1005 hPa | 2.03 mm | 2.68 m/s, 34° | - | - |
| 1778030643 | 11.67° C | 100% | 1004.8 hPa | 2.29 mm | 2.68 m/s, 39° | - | - |
| 1778030283 | 11.67° C | 100% | 1004.9 hPa | 2.29 mm | 2.68 m/s, 37° | - | - |
| 1778029923 | 11.67° C | 100% | 1005 hPa | 2.79 mm | 2.24 m/s, 37° | - | - |
| 1778029564 | 11.67° C | 100% | 1004.8 hPa | 3.56 mm | 2.24 m/s, 30° | - | - |
| 1778029204 | 11.67° C | 100% | 1004.8 hPa | 3.3 mm | 2.68 m/s, 28° | - | - |
| 1778028843 | 11.67° C | 100% | 1004.8 hPa | 3.3 mm | 2.68 m/s, 26° | - | - |
| 1778028484 | 12.22° C | 100% | 1004.9 hPa | 3.3 mm | 2.24 m/s, 41° | - | - |
| 1778028123 | 12.22° C | 100% | 1005.1 hPa | 3.56 mm | 3.13 m/s, 44° | - | - |
| 1778027763 | 12.22° C | 100% | 1005.1 hPa | 3.56 mm | 2.68 m/s, 49° | - | - |
| 1778027404 | 12.22° C | 100% | 1005.1 hPa | 3.3 mm | 3.13 m/s, 46° | - | - |
| 1778027044 | 12.22° C | 100% | 1005.1 hPa | 3.3 mm | 3.13 m/s, 34° | - | - |
| 1778026683 | 12.22° C | 100% | 1005.5 hPa | 3.3 mm | 2.68 m/s, 52° | - | - |
| 1778026323 | 12.22° C | 100% | 1005.3 hPa | 2.79 mm | 2.24 m/s, 50° | - | - |
| 1778025964 | 12.22° C | 100% | 1005.5 hPa | 1.78 mm | 2.24 m/s, 36° | - | - |
| 1778025603 | 12.22° C | 100% | 1005.8 hPa | 1.78 mm | 2.24 m/s, 38° | - | - |
| 1778025243 | 12.22° C | 100% | 1005.6 hPa | 1.78 mm | 2.24 m/s, 42° | - | - |
| 1778024883 | 12.22° C | 100% | 1006 hPa | 1.78 mm | 2.68 m/s, 38° | - | - |
| 1778024523 | 12.22° C | 100% | 1005.8 hPa | 1.27 mm | 2.24 m/s, 33° | - | - |
| 1778024163 | 12.22° C | 100% | 1006.1 hPa | 1.02 mm | 2.24 m/s, 50° | - | - |
* Rain latest hour (hover to see other rain measurements)
** Current wind speed in m/s (hover to see current wind gust speed)